Terminal Aerodrome Forecast
Issued by NWS

Home | Current Version | Previous Version | Text Only | Print | Product List | Glossary On
Versions: 1 2 3 4 5 6 7 8 9 10 11 12
000
FTUS46 KLOX 291731
TAFWJF
TAF
KWJF 291731Z 2918/3018 VRB05KT P6SM SKC
     FM292200 23012G21KT P6SM SKC
     FM300400 26009KT P6SM SKC
     FM301000 VRB03KT P6SM SKC=

USA.gov is the U.S. government's official web portal to all federal, state and local government web resources and services.